Time;durP1;ratioP1;P1;durP2;ratioP2;P2;SDS_P1;SDS_P2;PMS_P1;PMS_P2;Temp;Humidity;BMP_temperature;BMP_pressure;BME280_temperature;BME280_humidity;BME280_pressure;Samples;Min_cycle;Max_cycle;Signal;HPM_P1;HPM_P2
2023/05/18 00:02:16;;;;;;;10.27;3.05;;;;;;;;;;5037319;28;25146;-65
2023/05/18 00:04:42;;;;;;;8.63;3.05;;;;;;;;;;4951861;28;25163;-66
2023/05/18 00:07:09;;;;;;;9.15;3.17;;;;;;;;;;4950039;28;25043;-65
2023/05/18 00:09:36;;;;;;;4.43;2.70;;;;;;;;;;4953208;28;25159;-65
2023/05/18 00:12:02;;;;;;;6.45;2.50;;;;;;;;;;4953248;28;25092;-67
2023/05/18 00:14:28;;;;;;;14.32;3.38;;;;;;;;;;4955036;28;25074;-65
2023/05/18 00:16:54;;;;;;;6.35;2.10;;;;;;;;;;4961801;28;25093;-66
2023/05/18 00:19:21;;;;;;;12.80;2.20;;;;;;;;;;5037537;28;25042;-66
2023/05/18 00:21:47;;;;;;;6.78;3.00;;;;;;;;;;4980257;28;25065;-66
2023/05/18 00:24:14;;;;;;;4.97;2.33;;;;;;;;;;4955875;28;25122;-65
2023/05/18 00:26:40;;;;;;;6.28;2.45;;;;;;;;;;4976533;28;25088;-65
2023/05/18 00:29:06;;;;;;;10.95;3.60;;;;;;;;;;5043189;28;25124;-65
2023/05/18 00:31:37;;;;;;;6.90;3.22;;;;;;;;;;5044613;28;25129;-63
2023/05/18 00:34:03;;;;;;;7.45;2.42;;;;;;;;;;5043043;28;25061;-66
2023/05/18 00:36:30;;;;;;;12.80;3.53;;;;;;;;;;4991825;28;25095;-65
2023/05/18 00:38:56;;;;;;;9.07;2.75;;;;;;;;;;4982730;28;25094;-66
2023/05/18 00:41:22;;;;;;;7.05;2.70;;;;;;;;;;5033632;28;25076;-64
2023/05/18 00:43:49;;;;;;;10.43;2.65;;;;;;;;;;4956064;28;25081;-66
2023/05/18 00:46:15;;;;;;;11.13;2.30;;;;;;;;;;4955857;28;25095;-66
2023/05/18 00:48:41;;;;;;;14.63;2.28;;;;;;;;;;5013070;28;25093;-64
2023/05/18 00:51:07;;;;;;;13.15;2.67;;;;;;;;;;5045780;28;25053;-65
2023/05/18 00:53:33;;;;;;;12.45;2.63;;;;;;;;;;5030237;28;25144;-65
2023/05/18 00:55:59;;;;;;;8.77;2.75;;;;;;;;;;4959150;28;25069;-65
2023/05/18 00:58:25;;;;;;;5.75;2.70;;;;;;;;;;5041198;28;25076;-65
2023/05/18 01:00:52;;;;;;;8.48;2.97;;;;;;;;;;4980588;28;25054;-65
2023/05/18 01:03:20;;;;;;;9.15;2.40;;;;;;;;;;4959111;28;25104;-64
2023/05/18 01:05:49;;;;;;;10.57;2.55;;;;;;;;;;4957492;28;25070;-65
2023/05/18 01:08:15;;;;;;;7.72;2.47;;;;;;;;;;4954196;28;25076;-66
2023/05/18 01:10:43;;;;;;;6.05;2.45;;;;;;;;;;4958037;28;25149;-65
2023/05/18 01:13:15;;;;;;;7.60;3.60;;;;;;;;;;5029930;28;25052;-65
2023/05/18 01:15:44;;;;;;;10.15;2.30;;;;;;;;;;4988090;28;25057;-66
2023/05/18 01:18:13;;;;;;;12.38;2.90;;;;;;;;;;4995237;28;25138;-66
2023/05/18 01:20:45;;;;;;;9.63;2.95;;;;;;;;;;5046807;28;25064;-65
2023/05/18 01:23:14;;;;;;;7.90;1.88;;;;;;;;;;5043613;28;25120;-66
2023/05/18 01:25:47;;;;;;;8.00;2.20;;;;;;;;;;5047329;28;25059;-66
2023/05/18 01:28:15;;;;;;;8.77;2.70;;;;;;;;;;5045190;28;25069;-65
2023/05/18 01:30:42;;;;;;;8.82;2.47;;;;;;;;;;5046233;28;25119;-66
2023/05/18 01:33:08;;;;;;;9.50;2.40;;;;;;;;;;5043453;28;25051;-65
2023/05/18 01:35:40;;;;;;;10.20;2.42;;;;;;;;;;5047183;28;25068;-65
2023/05/18 01:38:06;;;;;;;12.43;3.50;;;;;;;;;;5044453;28;25066;-64
2023/05/18 01:40:37;;;;;;;6.70;3.22;;;;;;;;;;5045754;28;25075;-64
2023/05/18 01:43:08;;;;;;;8.30;2.47;;;;;;;;;;5044085;28;25134;-65
2023/05/18 01:45:35;;;;;;;8.70;2.90;;;;;;;;;;5046172;28;25041;-64
2023/05/18 01:48:01;;;;;;;9.00;2.45;;;;;;;;;;5044968;28;25060;-66
2023/05/18 01:50:31;;;;;;;7.70;2.38;;;;;;;;;;5046303;28;25082;-66
2023/05/18 01:52:59;;;;;;;6.32;2.10;;;;;;;;;;5043955;28;25070;-65
2023/05/18 01:55:27;;;;;;;11.60;3.33;;;;;;;;;;4959650;28;25072;-65
2023/05/18 01:57:53;;;;;;;7.95;2.22;;;;;;;;;;5018919;28;25160;-64
2023/05/18 02:00:19;;;;;;;10.43;2.47;;;;;;;;;;4999989;28;25080;-64
2023/05/18 02:02:45;;;;;;;9.85;2.28;;;;;;;;;;4947720;28;25129;-65
2023/05/18 02:05:11;;;;;;;9.30;2.13;;;;;;;;;;4928886;28;25057;-66
2023/05/18 02:07:38;;;;;;;4.97;2.67;;;;;;;;;;4952753;28;25084;-67
2023/05/18 02:10:05;;;;;;;11.15;2.40;;;;;;;;;;5027507;28;25058;-66
2023/05/18 02:12:31;;;;;;;8.27;3.22;;;;;;;;;;5054659;22;25069;-73
2023/05/18 02:14:58;;;;;;;9.68;2.78;;;;;;;;;;5022048;28;25146;-71
2023/05/18 02:17:25;;;;;;;6.60;2.55;;;;;;;;;;4968574;28;25101;-74
2023/05/18 02:19:51;;;;;;;9.50;2.53;;;;;;;;;;4970313;28;25069;-73
2023/05/18 02:22:17;;;;;;;6.97;2.90;;;;;;;;;;4965910;28;25075;-73
2023/05/18 02:24:45;;;;;;;10.20;2.90;;;;;;;;;;4959428;28;25114;-73
2023/05/18 02:27:13;;;;;;;9.23;3.35;;;;;;;;;;4974894;28;25063;-72
2023/05/18 02:29:39;;;;;;;8.30;2.58;;;;;;;;;;4962567;28;25079;-72
2023/05/18 02:32:05;;;;;;;13.90;3.95;;;;;;;;;;4958663;28;25101;-72
2023/05/18 02:34:31;;;;;;;12.88;2.90;;;;;;;;;;4958729;28;25141;-73
2023/05/18 02:37:02;;;;;;;11.20;2.90;;;;;;;;;;4954631;28;25053;-72
2023/05/18 02:39:28;;;;;;;16.45;2.92;;;;;;;;;;4959562;28;25084;-72
2023/05/18 02:41:54;;;;;;;5.03;2.30;;;;;;;;;;4962604;28;25065;-73
2023/05/18 02:44:20;;;;;;;9.88;2.33;;;;;;;;;;4953434;28;25077;-72
2023/05/18 02:46:46;;;;;;;5.10;2.33;;;;;;;;;;4956022;28;25062;-71
2023/05/18 02:49:12;;;;;;;6.07;2.38;;;;;;;;;;4957538;28;25102;-71
2023/05/18 02:51:38;;;;;;;9.73;3.00;;;;;;;;;;4962352;28;25118;-72
2023/05/18 02:54:05;;;;;;;5.88;2.20;;;;;;;;;;4958326;28;25060;-71
2023/05/18 02:56:32;;;;;;;15.52;3.60;;;;;;;;;;4949793;28;25074;-72
2023/05/18 02:58:59;;;;;;;5.95;2.35;;;;;;;;;;4948724;28;25141;-72
2023/05/18 03:01:25;;;;;;;4.57;2.40;;;;;;;;;;4958938;28;25155;-74
2023/05/18 03:03:56;;;;;;;4.43;2.33;;;;;;;;;;4954010;28;25067;-73
2023/05/18 03:06:25;;;;;;;4.97;2.28;;;;;;;;;;4953727;28;25061;-73
2023/05/18 03:08:53;;;;;;;4.78;2.08;;;;;;;;;;4955753;28;25071;-73
2023/05/18 03:11:19;;;;;;;9.55;2.95;;;;;;;;;;4953864;28;25138;-71
2023/05/18 03:13:46;;;;;;;7.72;2.42;;;;;;;;;;4954153;28;25059;-72
2023/05/18 03:16:12;;;;;;;7.15;2.28;;;;;;;;;;4954409;28;25112;-72
2023/05/18 03:18:38;;;;;;;6.63;2.70;;;;;;;;;;4952508;28;25096;-72
2023/05/18 03:21:04;;;;;;;13.25;3.60;;;;;;;;;;4953397;28;25073;-73
2023/05/18 03:23:30;;;;;;;4.72;2.25;;;;;;;;;;4957095;28;25064;-71
2023/05/18 03:25:56;;;;;;;7.57;2.63;;;;;;;;;;4977649;28;25097;-73
2023/05/18 03:28:22;;;;;;;11.30;2.58;;;;;;;;;;4957665;28;25073;-73
2023/05/18 03:30:48;;;;;;;7.80;2.97;;;;;;;;;;4957059;28;25062;-72
2023/05/18 03:33:14;;;;;;;7.22;2.17;;;;;;;;;;4954154;28;25152;-74
2023/05/18 03:35:40;;;;;;;6.43;2.63;;;;;;;;;;4951789;28;25076;-73
2023/05/18 03:38:06;;;;;;;8.45;2.95;;;;;;;;;;4955571;28;25112;-71
2023/05/18 03:40:32;;;;;;;8.32;2.25;;;;;;;;;;4959444;28;25091;-72
2023/05/18 03:42:58;;;;;;;5.75;2.40;;;;;;;;;;4959632;28;25070;-74
2023/05/18 03:45:24;;;;;;;8.18;2.70;;;;;;;;;;4955175;28;25074;-72
2023/05/18 03:47:51;;;;;;;6.60;2.08;;;;;;;;;;4951582;28;25064;-71
2023/05/18 03:50:17;;;;;;;6.30;2.20;;;;;;;;;;4954118;28;25081;-71
2023/05/18 03:52:43;;;;;;;6.28;2.63;;;;;;;;;;4959721;28;25047;-73
2023/05/18 03:55:10;;;;;;;8.77;2.90;;;;;;;;;;4955342;28;25079;-72
2023/05/18 03:57:37;;;;;;;7.38;2.22;;;;;;;;;;4957344;28;25055;-73
2023/05/18 04:00:06;;;;;;;9.18;3.05;;;;;;;;;;4956533;28;25098;-72
2023/05/18 04:02:32;;;;;;;10.63;2.78;;;;;;;;;;4951629;28;25077;-71
2023/05/18 04:04:58;;;;;;;12.90;2.92;;;;;;;;;;4954962;28;24777;-72
2023/05/18 04:07:24;;;;;;;9.88;3.22;;;;;;;;;;4954708;28;25067;-72
2023/05/18 04:09:51;;;;;;;8.75;2.78;;;;;;;;;;4952709;28;25070;-71
2023/05/18 04:12:17;;;;;;;11.13;3.65;;;;;;;;;;4953222;28;25102;-72
2023/05/18 04:14:48;;;;;;;4.57;2.13;;;;;;;;;;4953876;28;25141;-72
2023/05/18 04:17:14;;;;;;;7.72;2.97;;;;;;;;;;4953794;28;25066;-72
2023/05/18 04:19:40;;;;;;;7.40;2.40;;;;;;;;;;4955632;28;25049;-71
2023/05/18 04:22:07;;;;;;;9.98;2.45;;;;;;;;;;4955587;28;25136;-75
2023/05/18 04:24:33;;;;;;;8.80;2.65;;;;;;;;;;4958195;28;25194;-73
2023/05/18 04:27:03;;;;;;;8.50;2.63;;;;;;;;;;4958776;28;25076;-74
2023/05/18 04:29:29;;;;;;;9.43;2.45;;;;;;;;;;4954518;28;25047;-76
2023/05/18 04:31:59;;;;;;;8.90;2.55;;;;;;;;;;4957848;28;25074;-76
2023/05/18 04:34:29;;;;;;;6.78;2.50;;;;;;;;;;4958192;28;25069;-75
2023/05/18 04:36:57;;;;;;;5.70;2.45;;;;;;;;;;4952973;28;25052;-75
2023/05/18 04:39:23;;;;;;;10.02;3.00;;;;;;;;;;4957894;28;25068;-75
2023/05/18 04:41:58;;;;;;;3.88;2.55;;;;;;;;;;4957755;28;25071;-74
2023/05/18 04:44:26;;;;;;;5.93;2.70;;;;;;;;;;4956097;28;25060;-75
2023/05/18 04:46:56;;;;;;;9.27;5.03;;;;;;;;;;4955248;28;25110;-74
2023/05/18 04:49:22;;;;;;;8.77;2.90;;;;;;;;;;4959375;28;25083;-75
2023/05/18 04:51:54;;;;;;;7.47;2.80;;;;;;;;;;4955085;28;25054;-74
2023/05/18 04:54:23;;;;;;;4.88;2.75;;;;;;;;;;4955447;28;25135;-73
2023/05/18 04:56:49;;;;;;;10.77;2.83;;;;;;;;;;4952766;28;25079;-75
2023/05/18 04:59:15;;;;;;;7.00;2.35;;;;;;;;;;4954065;28;25105;-74
2023/05/18 05:01:42;;;;;;;12.20;2.75;;;;;;;;;;4952877;28;25068;-76
2023/05/18 05:04:08;;;;;;;7.03;2.33;;;;;;;;;;4954321;28;25062;-75
2023/05/18 05:06:34;;;;;;;6.90;3.10;;;;;;;;;;4953036;28;25241;-74
2023/05/18 05:09:00;;;;;;;16.95;2.58;;;;;;;;;;4954998;28;25074;-75
2023/05/18 05:11:26;;;;;;;10.98;2.60;;;;;;;;;;4952426;28;25049;-75
2023/05/18 05:13:52;;;;;;;6.00;2.83;;;;;;;;;;4955545;28;25066;-76
2023/05/18 05:16:18;;;;;;;7.45;2.78;;;;;;;;;;4955081;28;25080;-72
2023/05/18 05:18:44;;;;;;;6.32;2.88;;;;;;;;;;4954959;28;25078;-73
2023/05/18 05:21:10;;;;;;;9.55;3.22;;;;;;;;;;4954705;28;25064;-74
2023/05/18 05:23:36;;;;;;;13.23;2.95;;;;;;;;;;4953660;28;25104;-74
2023/05/18 05:26:02;;;;;;;8.65;3.10;;;;;;;;;;4955392;28;25066;-74
2023/05/18 05:28:28;;;;;;;8.60;2.90;;;;;;;;;;4956518;28;25167;-72
2023/05/18 05:30:55;;;;;;;8.50;2.53;;;;;;;;;;4950399;28;25056;-73
2023/05/18 05:33:21;;;;;;;10.32;3.08;;;;;;;;;;4959805;28;25146;-73
2023/05/18 05:35:47;;;;;;;9.65;3.05;;;;;;;;;;4959289;28;25096;-75
2023/05/18 05:38:13;;;;;;;9.13;3.17;;;;;;;;;;4961441;28;25099;-74
2023/05/18 05:40:40;;;;;;;10.35;3.65;;;;;;;;;;4957316;28;25142;-75
2023/05/18 05:43:06;;;;;;;11.70;3.17;;;;;;;;;;4958338;28;25138;-76
2023/05/18 05:45:32;;;;;;;8.13;2.80;;;;;;;;;;4960359;28;25055;-76
2023/05/18 05:47:58;;;;;;;8.88;2.70;;;;;;;;;;4959137;28;25127;-75
2023/05/18 05:50:24;;;;;;;10.27;3.45;;;;;;;;;;4956025;28;25066;-74
2023/05/18 05:52:50;;;;;;;7.88;3.25;;;;;;;;;;4970593;28;25074;-74
2023/05/18 05:55:16;;;;;;;9.35;2.83;;;;;;;;;;4958231;28;25168;-74
2023/05/18 05:57:42;;;;;;;7.55;2.85;;;;;;;;;;4960959;28;25054;-72
2023/05/18 06:00:12;;;;;;;9.52;2.55;;;;;;;;;;4961200;28;25107;-74
2023/05/18 06:02:38;;;;;;;11.18;3.42;;;;;;;;;;4958270;28;25075;-72
2023/05/18 06:05:05;;;;;;;10.57;3.22;;;;;;;;;;4960801;28;25071;-75
2023/05/18 06:07:31;;;;;;;11.15;4.45;;;;;;;;;;4959579;28;25063;-74
2023/05/18 06:09:57;;;;;;;11.52;2.80;;;;;;;;;;4956469;28;25060;-76
2023/05/18 06:12:23;;;;;;;11.25;3.85;;;;;;;;;;4962654;28;25085;-74
2023/05/18 06:14:51;;;;;;;17.48;2.65;;;;;;;;;;4959671;28;25151;-75
2023/05/18 06:17:17;;;;;;;10.13;2.67;;;;;;;;;;4969499;28;25082;-75
2023/05/18 06:19:43;;;;;;;10.40;2.67;;;;;;;;;;4959347;28;25135;-73
2023/05/18 06:22:09;;;;;;;6.65;2.65;;;;;;;;;;4959497;28;25071;-74
2023/05/18 06:24:35;;;;;;;9.85;2.72;;;;;;;;;;4960122;28;25061;-74
2023/05/18 06:27:01;;;;;;;13.85;3.90;;;;;;;;;;4962641;28;25071;-74
2023/05/18 06:29:27;;;;;;;8.57;2.78;;;;;;;;;;4967119;28;25098;-74
2023/05/18 06:31:54;;;;;;;14.30;2.90;;;;;;;;;;4969207;28;25157;-74
2023/05/18 06:34:20;;;;;;;7.53;3.28;;;;;;;;;;4960743;28;25060;-75
2023/05/18 06:36:46;;;;;;;8.30;2.47;;;;;;;;;;4962159;28;25099;-75
2023/05/18 06:39:12;;;;;;;18.23;3.55;;;;;;;;;;4965250;28;25051;-75
2023/05/18 06:41:38;;;;;;;12.68;2.40;;;;;;;;;;4962737;28;25054;-73
2023/05/18 06:44:04;;;;;;;14.63;3.42;;;;;;;;;;4959910;28;25099;-75
2023/05/18 06:46:30;;;;;;;8.40;3.13;;;;;;;;;;4960790;28;25149;-76
2023/05/18 06:48:56;;;;;;;10.63;3.20;;;;;;;;;;4957637;28;25079;-74
2023/05/18 06:51:23;;;;;;;13.75;3.10;;;;;;;;;;4958985;28;25097;-74
2023/05/18 06:53:49;;;;;;;12.88;2.88;;;;;;;;;;4957868;28;25058;-72
2023/05/18 06:56:15;;;;;;;7.32;3.10;;;;;;;;;;4958251;28;25079;-74
2023/05/18 06:58:41;;;;;;;10.80;2.80;;;;;;;;;;4959778;28;25079;-74
2023/05/18 07:01:07;;;;;;;11.10;2.80;;;;;;;;;;4960669;28;25165;-75
2023/05/18 07:03:34;;;;;;;13.98;3.08;;;;;;;;;;4960339;28;25084;-75
2023/05/18 07:06:00;;;;;;;8.05;2.58;;;;;;;;;;4962827;28;25069;-74
2023/05/18 07:08:26;;;;;;;13.35;3.22;;;;;;;;;;4963291;28;25051;-74
2023/05/18 07:10:53;;;;;;;7.07;2.47;;;;;;;;;;4965152;28;25079;-75
2023/05/18 07:13:19;;;;;;;11.35;3.03;;;;;;;;;;4961998;28;25064;-75
2023/05/18 07:15:46;;;;;;;6.63;2.53;;;;;;;;;;4961470;28;25065;-76
2023/05/18 07:18:12;;;;;;;9.55;2.67;;;;;;;;;;4960077;28;25062;-75
2023/05/18 07:20:38;;;;;;;6.25;2.92;;;;;;;;;;4957201;28;25063;-75
2023/05/18 07:23:04;;;;;;;10.73;2.72;;;;;;;;;;4977339;28;25095;-76
2023/05/18 07:25:30;;;;;;;8.75;2.58;;;;;;;;;;4953820;28;25085;-75
2023/05/18 07:27:56;;;;;;;8.48;2.40;;;;;;;;;;4954475;28;25060;-78
2023/05/18 07:30:22;;;;;;;7.97;2.83;;;;;;;;;;4955433;28;25043;-74
2023/05/18 07:32:49;;;;;;;15.68;3.78;;;;;;;;;;4952715;28;25092;-74
2023/05/18 07:35:18;;;;;;;8.13;2.55;;;;;;;;;;4953375;28;25122;-74
2023/05/18 07:37:44;;;;;;;6.47;2.38;;;;;;;;;;4957551;28;25080;-73
2023/05/18 07:40:11;;;;;;;10.18;2.58;;;;;;;;;;4956237;28;25063;-75
2023/05/18 07:42:40;;;;;;;12.32;2.65;;;;;;;;;;4961901;28;25070;-73
2023/05/18 07:45:07;;;;;;;8.77;2.40;;;;;;;;;;4954765;28;25066;-75
2023/05/18 07:47:33;;;;;;;10.23;2.70;;;;;;;;;;4951057;28;25082;-75
2023/05/18 07:49:59;;;;;;;10.32;3.17;;;;;;;;;;4964644;28;25097;-76
2023/05/18 07:52:25;;;;;;;10.95;2.55;;;;;;;;;;4956215;28;25105;-75
2023/05/18 07:54:52;;;;;;;9.55;3.00;;;;;;;;;;4956633;28;25144;-76
2023/05/18 07:57:18;;;;;;;11.68;2.78;;;;;;;;;;4953204;28;25068;-76
2023/05/18 07:59:44;;;;;;;8.43;2.63;;;;;;;;;;4955386;28;25092;-74
2023/05/18 08:02:10;;;;;;;10.27;3.20;;;;;;;;;;4959314;28;25065;-73
2023/05/18 08:04:36;;;;;;;5.30;2.65;;;;;;;;;;4957747;28;25063;-76
2023/05/18 08:07:03;;;;;;;7.97;2.67;;;;;;;;;;4954212;28;25085;-76
2023/05/18 08:09:30;;;;;;;9.80;2.78;;;;;;;;;;4957995;28;25166;-75
2023/05/18 08:12:02;;;;;;;9.93;3.08;;;;;;;;;;4956441;28;25096;-75
2023/05/18 08:14:28;;;;;;;;;;;;;;;;;;4950278;28;25084;-73
2023/05/18 08:16:54;;;;;;;11.18;2.85;;;;;;;;;;4960313;28;24129;-70
2023/05/18 08:19:20;;;;;;;7.93;3.15;;;;;;;;;;4961730;28;25083;-71
2023/05/18 08:21:46;;;;;;;9.30;2.03;;;;;;;;;;4967945;28;25066;-71
2023/05/18 08:24:12;;;;;;;10.27;2.67;;;;;;;;;;4960389;28;25112;-74
2023/05/18 08:26:38;;;;;;;8.70;2.55;;;;;;;;;;4956351;28;25066;-74
2023/05/18 08:29:08;;;;;;;10.82;3.92;;;;;;;;;;4959044;28;25068;-76
2023/05/18 08:31:35;;;;;;;8.43;3.03;;;;;;;;;;4958380;28;25124;-74
2023/05/18 08:34:02;;;;;;;9.18;2.40;;;;;;;;;;4956407;28;25055;-75
2023/05/18 08:36:28;;;;;;;10.02;2.40;;;;;;;;;;4955718;28;25068;-76
2023/05/18 08:38:54;;;;;;;15.20;3.13;;;;;;;;;;4949494;28;25100;-76
2023/05/18 08:41:21;;;;;;;9.50;2.05;;;;;;;;;;4953377;28;25079;-75
2023/05/18 08:43:52;;;;;;;9.75;2.63;;;;;;;;;;4953813;28;25080;-74
2023/05/18 08:46:26;;;;;;;13.30;3.63;;;;;;;;;;4952456;28;25077;-75
2023/05/18 08:48:52;;;;;;;10.68;2.85;;;;;;;;;;4952359;28;25070;-74
2023/05/18 08:51:20;;;;;;;9.10;2.80;;;;;;;;;;4952335;28;25059;-73
2023/05/18 08:53:51;;;;;;;9.82;2.42;;;;;;;;;;4953494;28;25156;-75
2023/05/18 08:56:18;;;;;;;15.27;3.58;;;;;;;;;;4953535;28;25078;-75
2023/05/18 08:58:47;;;;;;;19.05;3.58;;;;;;;;;;4956641;28;25080;-75
2023/05/18 09:01:14;;;;;;;12.05;2.95;;;;;;;;;;4954469;28;25077;-76
2023/05/18 09:03:41;;;;;;;10.02;2.70;;;;;;;;;;4954507;28;25120;-75
2023/05/18 09:06:07;;;;;;;15.00;2.70;;;;;;;;;;4950905;28;25063;-74
2023/05/18 09:08:33;;;;;;;10.23;3.22;;;;;;;;;;4960639;28;25067;-74
2023/05/18 09:11:01;;;;;;;12.05;2.83;;;;;;;;;;4958389;28;25081;-75
2023/05/18 09:13:27;;;;;;;8.55;2.40;;;;;;;;;;4956726;28;25064;-75
2023/05/18 09:15:53;;;;;;;6.90;2.50;;;;;;;;;;4957727;28;25052;-75
2023/05/18 09:18:19;;;;;;;9.63;2.50;;;;;;;;;;4957533;28;25102;-75
2023/05/18 09:20:45;;;;;;;11.98;3.38;;;;;;;;;;4955957;28;25083;-76
2023/05/18 09:23:11;;;;;;;11.63;2.28;;;;;;;;;;4956242;28;25073;-73
2023/05/18 09:25:42;;;;;;;14.48;3.50;;;;;;;;;;4958827;28;25061;-73
2023/05/18 09:28:08;;;;;;;8.93;2.45;;;;;;;;;;4962631;28;25124;-69
2023/05/18 09:30:41;;;;;;;7.32;2.65;;;;;;;;;;4956198;28;25081;-72
2023/05/18 09:33:17;;;;;;;8.23;2.60;;;;;;;;;;4953174;28;25083;-71
2023/05/18 09:35:44;;;;;;;10.90;2.58;;;;;;;;;;4957030;28;25056;-74
2023/05/18 09:38:12;;;;;;;7.55;3.08;;;;;;;;;;4956099;28;25047;-75
2023/05/18 09:40:43;;;;;;;14.15;3.78;;;;;;;;;;4960944;28;25138;-74
2023/05/18 09:43:09;;;;;;;9.65;3.15;;;;;;;;;;4957842;28;25067;-72
2023/05/18 09:45:38;;;;;;;9.73;2.80;;;;;;;;;;4957578;28;25062;-74
2023/05/18 09:48:06;;;;;;;12.30;2.35;;;;;;;;;;4959710;28;25153;-74
2023/05/18 09:50:33;;;;;;;9.32;3.22;;;;;;;;;;4959831;28;25060;-73
2023/05/18 09:52:59;;;;;;;7.90;2.28;;;;;;;;;;4954463;28;25056;-74
2023/05/18 09:55:28;;;;;;;11.50;3.08;;;;;;;;;;4955087;28;25046;-76
2023/05/18 09:57:56;;;;;;;10.70;2.60;;;;;;;;;;4951872;28;25077;-75
2023/05/18 10:00:22;;;;;;;15.23;2.83;;;;;;;;;;4954497;28;25081;-72
2023/05/18 10:02:51;;;;;;;9.38;3.30;;;;;;;;;;4953804;28;25050;-72
2023/05/18 10:05:29;;;;;;;8.40;2.58;;;;;;;;;;4951129;28;25070;-73
2023/05/18 10:07:55;;;;;;;10.60;2.45;;;;;;;;;;4952565;28;25067;-69
2023/05/18 10:10:22;;;;;;;11.60;2.30;;;;;;;;;;4948868;28;25065;-73
2023/05/18 10:12:50;;;;;;;9.55;2.30;;;;;;;;;;4954067;28;25063;-71
2023/05/18 10:15:19;;;;;;;10.85;2.80;;;;;;;;;;4946514;28;25059;-74
2023/05/18 10:17:46;;;;;;;5.30;2.45;;;;;;;;;;4957465;28;25064;-73
2023/05/18 10:20:15;;;;;;;6.45;2.72;;;;;;;;;;4951680;28;25127;-72
2023/05/18 10:22:41;;;;;;;7.28;2.75;;;;;;;;;;4948338;28;25077;-74
2023/05/18 10:25:09;;;;;;;10.38;2.78;;;;;;;;;;4955842;28;25091;-74
2023/05/18 10:27:41;;;;;;;9.52;2.88;;;;;;;;;;4949684;28;25062;-73
2023/05/18 10:30:21;;;;;;;10.90;3.60;;;;;;;;;;4959332;28;25066;-72
2023/05/18 10:32:48;;;;;;;8.32;2.85;;;;;;;;;;4949557;28;25074;-72
2023/05/18 10:35:14;;;;;;;17.42;3.72;;;;;;;;;;4950307;28;25064;-70
2023/05/18 10:37:48;;;;;;;10.05;2.40;;;;;;;;;;4949312;28;25073;-71
2023/05/18 10:40:22;;;;;;;9.73;3.22;;;;;;;;;;4951348;28;25074;-70
2023/05/18 10:43:08;;;;;;;7.65;2.63;;;;;;;;;;4951549;28;25083;-72
2023/05/18 10:45:34;;;;;;;9.77;2.80;;;;;;;;;;4949302;28;25083;-71
2023/05/18 10:48:08;;;;;;;8.27;3.13;;;;;;;;;;4952389;28;25091;-72
2023/05/18 10:50:40;;;;;;;10.93;3.30;;;;;;;;;;4945809;28;25066;-72
2023/05/18 10:53:09;;;;;;;12.00;2.97;;;;;;;;;;4953294;28;25066;-71
2023/05/18 10:55:35;;;;;;;7.82;2.47;;;;;;;;;;4951985;28;25053;-71
2023/05/18 10:58:03;;;;;;;9.68;2.05;;;;;;;;;;4954098;28;25065;-70
2023/05/18 11:00:30;;;;;;;10.48;2.10;;;;;;;;;;4952271;28;25161;-71
2023/05/18 11:02:57;;;;;;;9.00;2.75;;;;;;;;;;4952685;28;25074;-71
2023/05/18 11:05:23;;;;;;;10.95;2.60;;;;;;;;;;4955017;28;25075;-72
2023/05/18 11:07:49;;;;;;;8.48;2.88;;;;;;;;;;4967899;23;25081;-67
2023/05/18 11:10:15;;;;;;;10.40;2.30;;;;;;;;;;4963756;28;25052;-66
2023/05/18 11:12:42;;;;;;;6.05;2.30;;;;;;;;;;4957420;28;25072;-65
2023/05/18 11:15:08;;;;;;;10.18;3.33;;;;;;;;;;4957409;28;25081;-64
2023/05/18 11:17:34;;;;;;;10.30;3.63;;;;;;;;;;4955100;28;25125;-66
2023/05/18 11:20:06;;;;;;;8.23;3.10;;;;;;;;;;4954652;28;25124;-66
2023/05/18 11:22:48;;;;;;;8.40;2.33;;;;;;;;;;4969148;22;25067;-67
2023/05/18 11:25:24;;;;;;;10.02;2.95;;;;;;;;;;4962228;28;25065;-67
2023/05/18 11:27:50;;;;;;;9.00;2.20;;;;;;;;;;4961527;28;25153;-63
2023/05/18 11:30:29;;;;;;;8.20;2.30;;;;;;;;;;4960213;28;25058;-66
2023/05/18 11:33:08;;;;;;;6.78;2.40;;;;;;;;;;4961108;28;25062;-67
2023/05/18 11:35:36;;;;;;;7.32;2.90;;;;;;;;;;4962105;28;25131;-66
2023/05/18 11:38:08;;;;;;;12.23;3.42;;;;;;;;;;4962242;28;25072;-67
2023/05/18 11:40:47;;;;;;;10.55;3.28;;;;;;;;;;4961359;28;25078;-66
2023/05/18 11:43:39;;;;;;;10.02;2.70;;;;;;;;;;4961612;28;25053;-65
2023/05/18 11:46:17;;;;;;;10.98;3.15;;;;;;;;;;4958974;28;25136;-65
2023/05/18 11:48:43;;;;;;;9.68;3.63;;;;;;;;;;4960761;28;25083;-66
2023/05/18 11:51:10;;;;;;;8.93;2.97;;;;;;;;;;4961158;28;25083;-66
2023/05/18 11:53:36;;;;;;;6.55;2.90;;;;;;;;;;4961636;28;25087;-65
2023/05/18 11:56:02;;;;;;;7.78;2.80;;;;;;;;;;4964162;28;25114;-66
2023/05/18 11:58:29;;;;;;;5.85;2.88;;;;;;;;;;4959654;28;25138;-67
2023/05/18 12:00:56;;;;;;;12.65;2.95;;;;;;;;;;4964103;28;25070;-68
2023/05/18 12:03:26;;;;;;;7.90;2.63;;;;;;;;;;4962754;28;25106;-65
2023/05/18 12:05:52;;;;;;;5.65;2.78;;;;;;;;;;4963710;28;25087;-65
2023/05/18 12:08:18;;;;;;;14.15;3.10;;;;;;;;;;4960476;28;25129;-66
2023/05/18 12:10:46;;;;;;;10.65;3.60;;;;;;;;;;4966423;28;25071;-66
2023/05/18 12:13:12;;;;;;;7.78;2.97;;;;;;;;;;4958477;28;25051;-65
2023/05/18 12:15:38;;;;;;;7.50;2.65;;;;;;;;;;4961554;28;25112;-65
2023/05/18 12:18:04;;;;;;;10.80;2.90;;;;;;;;;;4960975;28;25107;-67
2023/05/18 12:20:30;;;;;;;8.27;3.10;;;;;;;;;;4965943;28;25046;-66
2023/05/18 12:22:56;;;;;;;8.63;3.35;;;;;;;;;;4961563;28;25070;-62
2023/05/18 12:25:24;;;;;;;5.50;2.33;;;;;;;;;;4962684;28;25063;-66
2023/05/18 12:27:51;;;;;;;9.75;2.83;;;;;;;;;;4960445;28;25044;-63
2023/05/18 12:30:18;;;;;;;9.55;3.33;;;;;;;;;;4961518;28;25124;-65
2023/05/18 12:32:48;;;;;;;9.02;3.08;;;;;;;;;;4961574;28;25049;-66
2023/05/18 12:35:14;;;;;;;10.45;2.80;;;;;;;;;;4960110;28;25079;-65
2023/05/18 12:37:43;;;;;;;12.45;3.10;;;;;;;;;;4960109;28;25171;-66
2023/05/18 12:40:10;;;;;;;14.50;3.25;;;;;;;;;;4959244;28;25059;-65
2023/05/18 12:42:37;;;;;;;12.13;2.28;;;;;;;;;;4962489;28;25079;-64
2023/05/18 12:45:03;;;;;;;15.23;3.42;;;;;;;;;;4963672;28;25130;-64
2023/05/18 12:47:31;;;;;;;9.27;2.55;;;;;;;;;;4962177;28;25070;-66
2023/05/18 12:50:00;;;;;;;11.63;2.47;;;;;;;;;;4965132;28;25068;-66
2023/05/18 12:52:26;;;;;;;7.35;2.53;;;;;;;;;;4962674;28;25060;-64
2023/05/18 12:54:54;;;;;;;11.50;3.30;;;;;;;;;;4962632;28;25131;-64
2023/05/18 12:57:20;;;;;;;8.45;2.97;;;;;;;;;;4961195;28;25127;-63
2023/05/18 12:59:49;;;;;;;8.18;2.53;;;;;;;;;;4964380;28;25058;-66
2023/05/18 13:02:26;;;;;;;9.38;2.70;;;;;;;;;;4961808;28;25151;-63
2023/05/18 13:05:02;;;;;;;7.95;2.90;;;;;;;;;;4963395;28;25083;-64
2023/05/18 13:07:28;;;;;;;5.35;2.40;;;;;;;;;;4967436;28;25054;-65
2023/05/18 13:10:00;;;;;;;4.00;1.75;;;;;;;;;;4962640;28;25047;-64
2023/05/18 13:12:35;;;;;;;10.35;4.18;;;;;;;;;;4964784;28;25114;-64
2023/05/18 13:15:31;;;;;;;8.27;2.92;;;;;;;;;;4965131;28;25072;-66
2023/05/18 13:17:58;;;;;;;11.93;4.00;;;;;;;;;;4935397;28;25078;-65
2023/05/18 13:20:42;;;;;;;7.57;3.05;;;;;;;;;;4962197;28;25097;-65
2023/05/18 13:23:09;;;;;;;12.13;3.33;;;;;;;;;;4959874;28;25151;-64
2023/05/18 13:25:35;;;;;;;8.43;2.72;;;;;;;;;;4964591;28;25067;-66
2023/05/18 13:28:02;;;;;;;13.60;3.15;;;;;;;;;;4967134;28;25111;-64
2023/05/18 13:30:28;;;;;;;10.35;3.03;;;;;;;;;;4964255;28;25062;-66
2023/05/18 13:32:55;;;;;;;4.93;2.53;;;;;;;;;;4961794;28;25178;-66
2023/05/18 13:35:21;;;;;;;3.67;2.20;;;;;;;;;;4961779;28;25087;-63
2023/05/18 13:37:47;;;;;;;10.70;3.20;;;;;;;;;;4961708;28;25112;-65
2023/05/18 13:40:14;;;;;;;7.88;3.55;;;;;;;;;;4961683;28;25063;-63
2023/05/18 13:42:40;;;;;;;9.27;3.15;;;;;;;;;;4960755;28;25070;-65
2023/05/18 13:45:06;;;;;;;8.48;3.03;;;;;;;;;;4961848;28;25108;-64
2023/05/18 13:47:32;;;;;;;8.02;3.05;;;;;;;;;;4960443;28;25077;-65
2023/05/18 13:49:58;;;;;;;6.40;2.55;;;;;;;;;;4962446;28;25098;-64
2023/05/18 13:52:24;;;;;;;6.60;3.33;;;;;;;;;;4959053;28;25151;-65
2023/05/18 13:54:50;;;;;;;8.10;2.83;;;;;;;;;;4963123;28;25057;-64
2023/05/18 13:57:16;;;;;;;6.97;2.75;;;;;;;;;;4959415;28;25075;-63
2023/05/18 13:59:42;;;;;;;15.18;3.70;;;;;;;;;;4962847;28;25080;-66
2023/05/18 14:02:08;;;;;;;5.97;2.65;;;;;;;;;;4964543;28;25116;-66
2023/05/18 14:04:35;;;;;;;9.30;3.47;;;;;;;;;;4963172;28;25068;-65
2023/05/18 14:07:01;;;;;;;7.50;2.72;;;;;;;;;;4961097;28;25090;-65
2023/05/18 14:09:27;;;;;;;7.03;2.58;;;;;;;;;;4964747;28;25113;-65
2023/05/18 14:11:56;;;;;;;13.52;3.63;;;;;;;;;;4965012;28;25067;-65
2023/05/18 14:14:22;;;;;;;9.38;2.95;;;;;;;;;;4962691;28;25076;-66
2023/05/18 14:16:48;;;;;;;8.77;2.55;;;;;;;;;;4963205;28;25067;-65
2023/05/18 14:19:14;;;;;;;9.15;2.58;;;;;;;;;;4961153;28;25142;-67
2023/05/18 14:21:40;;;;;;;11.88;3.30;;;;;;;;;;4954845;28;25094;-67
2023/05/18 14:24:08;;;;;;;6.43;2.58;;;;;;;;;;4954943;28;25077;-66
2023/05/18 14:26:35;;;;;;;5.50;2.58;;;;;;;;;;4961112;28;25117;-66
2023/05/18 14:29:01;;;;;;;5.28;2.60;;;;;;;;;;4961366;28;25058;-66
2023/05/18 14:31:27;;;;;;;9.63;3.35;;;;;;;;;;4961936;28;25114;-68
2023/05/18 14:33:53;;;;;;;9.43;2.70;;;;;;;;;;4960932;28;25058;-67
2023/05/18 14:36:19;;;;;;;10.57;3.13;;;;;;;;;;4967790;28;25117;-65
2023/05/18 14:38:45;;;;;;;7.95;3.05;;;;;;;;;;4960618;28;25156;-66
2023/05/18 14:41:11;;;;;;;10.30;3.30;;;;;;;;;;4960311;28;25108;-66